Terminal Aerodrome Forecast
Issued by NWS

Home | Current Version | Previous Version | Text Only | Print | Product List | Glossary On
Versions: 1 2 3 4 5 6 7 8 9 10 11 12 13 14 15 16 17 18 19 20
000
FTUS46 KPDT 222341
TAFBDN
TAF
KBDN 222341Z 2300/2324 25009KT P6SM BKN160 BKN180
     FM230300 20006KT P6SM BKN070 OVC100
      TEMPO 2303/2306 -RA OVC050
     FM230600 17007KT P6SM VCSH BKN030 OVC060=

USA.gov is the U.S. government's official web portal to all federal, state and local government web resources and services.